Time;durP1;ratioP1;P1;durP2;ratioP2;P2;SDS_P1;SDS_P2;PMS_P1;PMS_P2;Temp;Humidity;BMP_temperature;BMP_pressure;BME280_temperature;BME280_humidity;BME280_pressure;Samples;Min_cycle;Max_cycle;Signal;HPM_P1;HPM_P2
2022/03/08 00:02:19;;;;;;;27.38;18.17;;;;;;;7.31;47.81;94866.69;5089877;28;20271;-62
2022/03/08 00:04:46;;;;;;;27.17;18.25;;;;;;;7.28;47.91;94872.41;5089505;28;20179;-64
2022/03/08 00:07:14;;;;;;;27.33;18.48;;;;;;;7.36;47.75;94874.59;5089338;28;20932;-63
2022/03/08 00:09:41;;;;;;;26.63;17.48;;;;;;;7.10;47.83;94861.16;5089306;28;20279;-62
2022/03/08 00:12:08;;;;;;;25.73;18.38;;;;;;;7.73;46.84;94870.50;5089476;28;20620;-65
2022/03/08 00:14:35;;;;;;;24.92;17.23;;;;;;;7.32;48.02;94868.31;5089127;28;20870;-63
2022/03/08 00:17:02;;;;;;;27.67;18.65;;;;;;;7.31;48.20;94869.31;5089118;28;20294;-63
2022/03/08 00:19:29;;;;;;;27.02;18.05;;;;;;;7.40;47.81;94870.50;5088489;28;20678;-62
2022/03/08 00:21:56;;;;;;;26.77;17.88;;;;;;;6.92;48.44;94863.94;5089026;28;20195;-62
2022/03/08 00:24:23;;;;;;;27.73;17.88;;;;;;;7.22;47.98;94874.91;5088704;28;20594;-61
2022/03/08 00:26:51;;;;;;;24.73;16.42;;;;;;;6.89;48.36;94880.06;5070747;28;20195;-62
2022/03/08 00:29:18;;;;;;;25.45;18.02;;;;;;;7.15;48.00;94879.47;5070418;28;20203;-62
2022/03/08 00:31:44;;;;;;;25.25;17.63;;;;;;;7.50;47.43;94868.06;5088788;28;20237;-64
2022/03/08 00:34:11;;;;;;;24.80;17.17;;;;;;;7.40;47.68;94873.09;5070561;28;20696;-63
2022/03/08 00:36:38;;;;;;;23.70;16.05;;;;;;;7.15;48.01;94876.09;5088782;28;20297;-67
2022/03/08 00:39:05;;;;;;;23.33;15.55;;;;;;;6.56;48.97;94874.72;5088650;28;20187;-62
2022/03/08 00:41:32;;;;;;;23.85;16.80;;;;;;;6.88;48.84;94872.44;5088809;28;20195;-63
2022/03/08 00:44:00;;;;;;;24.33;16.38;;;;;;;7.23;47.48;94870.47;5088945;28;20199;-61
2022/03/08 00:46:27;;;;;;;24.27;17.02;;;;;;;7.29;47.85;94860.94;5088653;28;20213;-61
2022/03/08 00:48:55;;;;;;;24.25;16.35;;;;;;;6.72;48.57;94868.78;5088974;28;20180;-64
2022/03/08 00:51:23;;;;;;;22.38;15.88;;;;;;;7.17;47.67;94864.38;5088470;28;20198;-62
2022/03/08 00:53:50;;;;;;;22.75;16.00;;;;;;;7.17;47.79;94867.00;5088610;28;20202;-63
2022/03/08 00:56:17;;;;;;;24.20;16.67;;;;;;;7.17;47.87;94861.78;5088841;28;20302;-59
2022/03/08 00:58:44;;;;;;;23.27;16.55;;;;;;;7.47;46.95;94855.50;5069924;28;20294;-64
2022/03/08 01:01:12;;;;;;;23.58;16.73;;;;;;;7.19;47.51;94864.94;5088581;28;20188;-63
2022/03/08 01:03:39;;;;;;;23.42;16.55;;;;;;;7.49;47.54;94861.25;5088823;28;20199;-64
2022/03/08 01:06:06;;;;;;;25.42;17.33;;;;;;;7.75;46.96;94863.25;5088448;28;20183;-63
2022/03/08 01:08:33;;;;;;;25.17;18.95;;;;;;;7.67;47.27;94856.59;5088978;28;20190;-61
2022/03/08 01:11:00;;;;;;;24.00;17.10;;;;;;;7.40;46.88;94852.25;5070047;28;20225;-63
2022/03/08 01:13:27;;;;;;;24.23;16.63;;;;;;;7.57;46.82;94860.88;5070874;28;20195;-62
2022/03/08 01:15:54;;;;;;;22.85;16.58;;;;;;;7.41;47.17;94861.66;5088373;28;20630;-61
2022/03/08 01:18:22;;;;;;;22.83;16.60;;;;;;;7.65;46.22;94852.66;5088826;28;20193;-65
2022/03/08 01:20:48;;;;;;;23.05;16.38;;;;;;;7.48;47.08;94846.66;5088456;28;20179;-63
2022/03/08 01:23:15;;;;;;;22.50;16.33;;;;;;;7.28;47.11;94848.94;5070935;28;20594;-61
2022/03/08 01:25:44;;;;;;;25.13;16.63;;;;;;;7.50;46.81;94855.81;5069751;28;20901;-62
2022/03/08 01:28:11;;;;;;;24.40;16.77;;;;;;;7.28;47.10;94851.53;5071012;28;20670;-61
2022/03/08 01:30:37;;;;;;;23.63;16.13;;;;;;;7.16;46.89;94839.38;5088704;28;20194;-64
2022/03/08 01:33:04;;;;;;;23.50;16.27;;;;;;;6.82;47.68;94842.94;5088571;28;20201;-62
2022/03/08 01:35:31;;;;;;;24.98;17.02;;;;;;;6.93;48.05;94849.88;5087965;28;20215;-64
2022/03/08 01:37:58;;;;;;;25.00;16.85;;;;;;;7.34;46.80;94845.38;5069846;28;20696;-64
2022/03/08 01:40:25;;;;;;;25.00;17.58;;;;;;;7.05;47.25;94840.22;5088279;28;20253;-62
2022/03/08 01:42:52;;;;;;;26.45;18.10;;;;;;;7.51;46.57;94839.16;5089153;28;20191;-62
2022/03/08 01:45:22;;;;;;;24.15;16.67;;;;;;;7.32;47.21;94852.66;5088064;28;20187;-61
2022/03/08 01:47:50;;;;;;;25.48;17.73;;;;;;;7.33;46.76;94846.41;5069700;28;20338;-62
2022/03/08 01:50:17;;;;;;;26.50;17.98;;;;;;;7.10;46.87;94839.50;5087986;28;20267;-63
2022/03/08 01:52:44;;;;;;;24.45;16.85;;;;;;;6.94;46.93;94835.84;5070429;28;20209;-65
2022/03/08 01:55:14;;;;;;;24.90;16.65;;;;;;;6.90;47.33;94845.16;5088046;28;20268;-63
2022/03/08 01:57:45;;;;;;;26.33;17.55;;;;;;;6.97;47.45;94839.81;5088540;28;20560;-62
2022/03/08 02:00:15;;;;;;;25.75;17.75;;;;;;;7.00;46.99;94839.34;5088160;28;20202;-60
2022/03/08 02:02:44;;;;;;;27.52;18.10;;;;;;;6.98;46.58;94836.97;5088631;28;20661;-62
2022/03/08 02:05:12;;;;;;;27.67;18.48;;;;;;;6.67;47.12;94845.25;5088071;28;20709;-63
2022/03/08 02:07:39;;;;;;;27.88;18.02;;;;;;;6.82;47.07;94842.94;5088019;28;20674;-62
2022/03/08 02:10:08;;;;;;;27.08;18.08;;;;;;;6.44;48.32;94845.31;5088356;28;20559;-61
2022/03/08 02:12:35;;;;;;;27.35;18.35;;;;;;;7.03;47.07;94833.66;5090680;28;20210;-62
2022/03/08 02:15:23;;;;;;;26.38;17.15;;;;;;;6.86;46.71;94844.03;5091259;28;20195;-60
2022/03/08 02:17:51;;;;;;;28.13;18.15;;;;;;;6.80;46.61;94844.19;5091932;28;20199;-63
2022/03/08 02:20:18;;;;;;;26.77;17.77;;;;;;;6.74;46.56;94843.31;5091529;28;20214;-63
2022/03/08 02:22:47;;;;;;;27.98;18.38;;;;;;;6.24;47.48;94852.72;5092120;28;20665;-61
2022/03/08 02:25:15;;;;;;;26.45;16.83;;;;;;;6.18;48.03;94851.06;5091598;28;20986;-62
2022/03/08 02:27:47;;;;;;;26.77;17.63;;;;;;;5.90;48.67;94850.97;5091516;28;20658;-59
2022/03/08 02:30:16;;;;;;;28.10;17.45;;;;;;;5.36;49.78;94864.25;5091182;28;20195;-62
2022/03/08 02:32:44;;;;;;;27.02;18.15;;;;;;;5.69;49.34;94860.06;5091247;28;20259;-63
2022/03/08 02:35:16;;;;;;;28.65;18.08;;;;;;;6.23;48.63;94858.94;5090976;28;20277;-63
2022/03/08 02:37:50;;;;;;;26.05;17.63;;;;;;;6.11;48.89;94855.59;5091136;28;20198;-61
2022/03/08 02:40:20;;;;;;;29.38;18.83;;;;;;;6.54;48.35;94857.75;5091229;28;20195;-65
2022/03/08 02:42:47;;;;;;;27.98;18.77;;;;;;;6.53;47.98;94859.53;5091814;28;20191;-61
2022/03/08 02:45:15;;;;;;;29.70;19.13;;;;;;;6.75;47.58;94867.53;5091106;28;20183;-61
2022/03/08 02:47:42;;;;;;;29.92;19.52;;;;;;;6.99;46.69;94864.59;5090810;28;20277;-63
2022/03/08 02:50:11;;;;;;;29.17;18.90;;;;;;;7.14;46.46;94864.88;5091485;28;20192;-64
2022/03/08 02:52:41;;;;;;;31.80;20.00;;;;;;;7.09;46.67;94859.56;5091522;28;20191;-63
2022/03/08 02:55:08;;;;;;;31.90;20.73;;;;;;;7.40;45.76;94855.66;5090827;28;20199;-63
2022/03/08 02:57:35;;;;;;;31.60;19.48;;;;;;;6.72;47.37;94860.16;5090863;28;20211;-61
2022/03/08 03:00:05;;;;;;;30.15;19.05;;;;;;;6.71;46.66;94880.22;5090871;28;20248;-64
2022/03/08 03:02:31;;;;;;;31.05;19.92;;;;;;;5.60;49.39;94884.06;5091204;28;20555;-62
2022/03/08 03:04:58;;;;;;;30.05;19.70;;;;;;;6.42;48.06;94876.00;5090680;28;20248;-63
2022/03/08 03:07:25;;;;;;;31.23;20.63;;;;;;;6.54;47.72;94876.75;5090479;28;20195;-63
2022/03/08 03:09:52;;;;;;;32.67;21.45;;;;;;;6.44;47.70;94881.75;5090310;28;20210;-64
2022/03/08 03:12:19;;;;;;;34.42;21.77;;;;;;;6.35;48.07;94877.94;5090686;28;20236;-59
2022/03/08 03:14:46;;;;;;;32.63;20.55;;;;;;;6.41;48.09;94877.00;5090090;28;20589;-61
2022/03/08 03:17:13;;;;;;;31.15;20.25;;;;;;;6.78;46.96;94883.50;5090449;28;20613;-64
2022/03/08 03:19:40;;;;;;;31.02;20.33;;;;;;;6.38;47.42;94880.09;5090260;28;20219;-59
2022/03/08 03:22:07;;;;;;;32.50;19.52;;;;;;;5.66;49.01;94893.53;5090949;28;20240;-63
2022/03/08 03:24:34;;;;;;;34.30;20.73;;;;;;;6.06;48.51;94899.69;5091115;28;20198;-61
2022/03/08 03:27:00;;;;;;;33.15;19.65;;;;;;;6.34;47.68;94889.38;5090808;28;20203;-64
2022/03/08 03:29:27;;;;;;;32.72;19.35;;;;;;;5.97;48.20;94895.84;5090166;28;20530;-60
2022/03/08 03:31:54;;;;;;;32.33;20.27;;;;;;;6.24;48.38;94890.97;5090577;28;20199;-61
2022/03/08 03:34:21;;;;;;;31.90;19.30;;;;;;;6.47;47.58;94890.91;5090037;28;20195;-63
2022/03/08 03:36:48;;;;;;;30.08;19.27;;;;;;;6.69;47.08;94884.88;5090060;28;20234;-62
2022/03/08 03:39:15;;;;;;;30.80;19.50;;;;;;;6.54;47.24;94887.19;5089497;28;20675;-61
2022/03/08 03:41:41;;;;;;;32.33;20.60;;;;;;;6.59;46.80;94889.88;5089591;28;20183;-62
2022/03/08 03:44:10;;;;;;;32.58;20.73;;;;;;;6.54;47.38;94887.19;5089809;28;20287;-60
2022/03/08 03:46:37;;;;;;;31.67;19.05;;;;;;;6.27;47.68;94890.50;5089455;28;20191;-62
2022/03/08 03:49:04;;;;;;;31.70;20.02;;;;;;;5.67;49.05;94905.53;5089882;28;20199;-62
2022/03/08 03:51:32;;;;;;;32.22;20.15;;;;;;;5.49;49.18;94903.78;5089487;28;20693;-63
2022/03/08 03:53:58;;;;;;;32.20;20.17;;;;;;;5.60;49.63;94899.66;5089241;28;20203;-62
2022/03/08 03:56:25;;;;;;;30.73;20.25;;;;;;;5.48;50.36;94896.22;5090608;28;20219;-62
2022/03/08 03:58:52;;;;;;;32.75;18.35;;;;;;;5.18;50.46;94890.28;5089437;28;20188;-62
2022/03/08 04:01:19;;;;;;;31.58;19.98;;;;;;;5.64;50.39;94898.97;5089406;28;20195;-63
2022/03/08 04:03:46;;;;;;;30.95;17.65;;;;;;;5.07;51.04;94900.41;5089241;28;20207;-60
2022/03/08 04:06:13;;;;;;;39.00;22.52;;;;;;;6.09;49.19;94897.41;5090009;28;20245;-63
2022/03/08 04:08:41;;;;;;;33.13;21.00;;;;;;;6.18;49.71;94892.69;5089702;28;20203;-60
2022/03/08 04:11:09;;;;;;;35.33;21.85;;;;;;;6.21;49.34;94892.22;5090268;28;20211;-64
2022/03/08 04:13:36;;;;;;;37.22;22.75;;;;;;;5.72;50.43;94895.25;5089315;28;20203;-63
2022/03/08 04:16:03;;;;;;;34.22;20.83;;;;;;;5.29;52.00;94898.13;5089232;28;20211;-64
2022/03/08 04:18:30;;;;;;;33.60;21.38;;;;;;;5.68;51.01;94899.28;5089726;28;20230;-60
2022/03/08 04:20:57;;;;;;;34.22;21.00;;;;;;;4.98;52.56;94899.13;5089162;28;20191;-60
2022/03/08 04:23:24;;;;;;;36.40;21.90;;;;;;;5.11;52.47;94906.75;5089458;28;20214;-63
2022/03/08 04:25:51;;;;;;;34.40;21.48;;;;;;;5.33;51.92;94906.25;5089576;28;20653;-63
2022/03/08 04:28:18;;;;;;;38.88;21.83;;;;;;;5.31;51.57;94900.50;5088954;28;20183;-61
2022/03/08 04:30:45;;;;;;;39.00;22.85;;;;;;;5.58;51.29;94907.66;5089263;28;20209;-63
2022/03/08 04:33:11;;;;;;;39.55;22.58;;;;;;;5.67;51.27;94890.72;5089739;28;20248;-62
2022/03/08 04:35:38;;;;;;;37.25;23.02;;;;;;;5.55;51.73;94899.50;5088404;28;20202;-62
2022/03/08 04:38:05;;;;;;;33.58;21.75;;;;;;;5.19;52.71;94892.66;5089040;28;20195;-64
2022/03/08 04:40:32;;;;;;;37.40;22.48;;;;;;;5.82;51.31;94892.88;5088515;28;20498;-64
2022/03/08 04:42:59;;;;;;;40.30;24.23;;;;;;;5.74;51.40;94895.81;5089267;28;20619;-63
2022/03/08 04:45:26;;;;;;;38.85;23.42;;;;;;;5.11;52.42;94901.56;5088123;28;20199;-63
2022/03/08 04:47:53;;;;;;;38.33;23.05;;;;;;;5.73;51.43;94899.44;5088502;28;20254;-61
2022/03/08 04:50:20;;;;;;;39.78;24.73;;;;;;;5.97;51.35;94891.44;5088841;28;20555;-64
2022/03/08 04:52:48;;;;;;;38.08;23.63;;;;;;;5.03;52.75;94894.09;5089010;28;20199;-61
2022/03/08 04:55:17;;;;;;;35.60;22.50;;;;;;;5.45;52.19;94888.88;5070936;28;20261;-59
2022/03/08 04:57:45;;;;;;;40.78;24.52;;;;;;;5.75;51.46;94886.97;5089247;28;20280;-62
2022/03/08 05:00:14;;;;;;;40.63;24.35;;;;;;;5.16;52.75;94888.69;5069683;28;20635;-61
2022/03/08 05:02:43;;;;;;;38.78;24.33;;;;;;;5.68;51.63;94891.50;5086080;28;20962;-61
2022/03/08 05:05:12;;;;;;;38.85;24.20;;;;;;;5.22;52.56;94891.44;5087302;28;20206;-64
2022/03/08 05:07:40;;;;;;;41.85;25.52;;;;;;;5.51;52.38;94895.78;5087898;28;20190;-63
2022/03/08 05:10:09;;;;;;;42.83;25.98;;;;;;;5.50;51.88;94889.78;5087161;28;20205;-60
2022/03/08 05:12:37;;;;;;;43.08;26.10;;;;;;;5.86;51.28;94894.03;5085429;28;20191;-62
2022/03/08 05:15:05;;;;;;;47.58;25.42;;;;;;;5.79;51.20;94890.72;5087774;28;20210;-61
2022/03/08 05:17:31;;;;;;;39.65;25.10;;;;;;;5.89;50.47;94898.78;5089156;28;20219;-63
2022/03/08 05:19:59;;;;;;;42.53;26.27;;;;;;;5.08;52.72;94902.00;5088719;28;20198;-60
2022/03/08 05:22:25;;;;;;;46.38;27.00;;;;;;;5.64;52.55;94895.59;5089229;28;20195;-60
2022/03/08 05:24:52;;;;;;;43.80;25.95;;;;;;;5.80;51.34;94900.13;5088417;28;20686;-64
2022/03/08 05:27:19;;;;;;;43.30;26.02;;;;;;;5.65;51.44;94891.97;5070325;28;20255;-63
2022/03/08 05:29:47;;;;;;;42.25;25.77;;;;;;;5.65;51.37;94891.97;5088299;28;20209;-62
2022/03/08 05:32:14;;;;;;;42.53;25.75;;;;;;;5.76;51.38;94901.56;5089169;28;20658;-62
2022/03/08 05:34:41;;;;;;;40.42;24.85;;;;;;;5.54;51.45;94895.34;5088621;28;20199;-64
2022/03/08 05:37:08;;;;;;;41.50;24.58;;;;;;;6.06;50.18;94884.88;5088779;28;20211;-64
2022/03/08 05:39:35;;;;;;;39.40;25.15;;;;;;;6.03;50.41;94893.13;5088259;28;20203;-63
2022/03/08 05:42:02;;;;;;;39.72;25.10;;;;;;;6.15;50.14;94899.13;5088695;28;20635;-62
2022/03/08 05:44:29;;;;;;;40.58;24.73;;;;;;;5.88;50.98;94908.41;5088415;28;20207;-64
2022/03/08 05:46:56;;;;;;;41.83;25.20;;;;;;;6.29;49.90;94894.47;5089687;28;20325;-65
2022/03/08 05:49:23;;;;;;;37.63;23.60;;;;;;;6.24;49.92;94902.16;5092321;28;20199;-63
2022/03/08 05:51:49;;;;;;;39.47;24.17;;;;;;;5.70;50.83;94894.66;5092668;28;20625;-61
2022/03/08 05:54:16;;;;;;;39.60;24.25;;;;;;;5.86;50.58;94897.44;5090780;28;20822;-64
2022/03/08 05:56:44;;;;;;;64.95;38.05;;;;;;;5.73;54.19;94909.84;5090830;28;20901;-65
2022/03/08 05:59:11;;;;;;;78.32;45.25;;;;;;;6.37;50.88;94904.50;5091383;28;20209;-64
2022/03/08 06:01:38;;;;;;;50.58;29.75;;;;;;;5.84;53.10;94911.66;5091684;28;20287;-62
2022/03/08 06:04:05;;;;;;;39.83;25.30;;;;;;;5.83;50.92;94899.69;5091146;28;20755;-64
2022/03/08 06:06:32;;;;;;;42.88;25.88;;;;;;;5.86;50.48;94905.22;5092166;28;20572;-63
2022/03/08 06:08:59;;;;;;;40.38;25.95;;;;;;;5.81;50.98;94905.09;5091251;28;20997;-63
2022/03/08 06:11:25;;;;;;;38.65;24.15;;;;;;;5.97;50.48;94911.44;5091789;28;20751;-65
2022/03/08 06:13:52;;;;;;;40.80;25.40;;;;;;;6.50;49.62;94906.88;5091657;28;20242;-62
2022/03/08 06:16:19;;;;;;;37.42;23.08;;;;;;;6.46;49.22;94915.38;5092191;28;20303;-65
2022/03/08 06:18:46;;;;;;;39.75;24.50;;;;;;;6.53;49.32;94911.59;5091334;28;20195;-63
2022/03/08 06:21:13;;;;;;;38.28;24.45;;;;;;;6.77;48.71;94912.38;5091393;28;20274;-64
2022/03/08 06:23:40;;;;;;;37.58;24.15;;;;;;;6.65;49.13;94907.19;5090577;28;20203;-62
2022/03/08 06:26:08;;;;;;;38.92;24.58;;;;;;;6.92;48.68;94918.66;5090559;28;20187;-64
2022/03/08 06:28:35;;;;;;;38.67;24.63;;;;;;;6.83;48.48;94907.00;5091747;28;20304;-59
2022/03/08 06:31:02;;;;;;;37.83;22.98;;;;;;;6.64;47.98;94921.22;5090595;28;20236;-66
2022/03/08 06:33:29;;;;;;;38.72;25.02;;;;;;;6.89;48.02;94911.31;5090927;28;20202;-62
2022/03/08 06:35:56;;;;;;;36.00;23.27;;;;;;;6.61;48.62;94918.28;5091229;28;20715;-67
2022/03/08 06:38:23;;;;;;;35.58;22.92;;;;;;;6.91;48.36;94922.28;5089964;28;20737;-67
2022/03/08 06:40:50;;;;;;;37.50;24.00;;;;;;;6.63;48.69;94927.44;5088475;28;20214;-62
2022/03/08 06:43:17;;;;;;;40.38;25.40;;;;;;;6.80;48.58;94925.72;5091613;28;20195;-64
2022/03/08 06:45:44;;;;;;;36.90;24.08;;;;;;;6.92;47.68;94926.47;5090981;28;20215;-62
2022/03/08 06:48:11;;;;;;;38.28;23.60;;;;;;;6.82;47.80;94926.28;5091219;28;20347;-63
2022/03/08 06:50:38;;;;;;;34.25;22.77;;;;;;;7.08;47.01;94924.91;5090505;28;20214;-66
2022/03/08 06:53:05;;;;;;;39.80;24.80;;;;;;;7.35;46.55;94925.16;5091509;28;20210;-62
2022/03/08 06:55:32;;;;;;;38.58;24.95;;;;;;;7.34;46.31;94926.97;5091052;28;20199;-63
2022/03/08 06:57:59;;;;;;;36.65;23.63;;;;;;;6.87;47.33;94920.38;5091062;28;20230;-64
2022/03/08 07:00:26;;;;;;;39.05;23.95;;;;;;;6.86;47.63;94924.78;5090412;28;20288;-66
2022/03/08 07:02:53;;;;;;;37.78;23.67;;;;;;;6.90;47.73;94920.69;5091485;28;20223;-64
2022/03/08 07:05:20;;;;;;;36.13;23.60;;;;;;;6.74;47.48;94928.44;5090921;28;20214;-64
2022/03/08 07:07:47;;;;;;;37.50;23.30;;;;;;;6.43;48.01;94927.03;5090562;28;20231;-64
2022/03/08 07:10:14;;;;;;;38.63;23.30;;;;;;;6.66;47.34;94926.97;5090795;28;20225;-64
2022/03/08 07:12:41;;;;;;;37.80;24.05;;;;;;;6.75;47.59;94933.41;5091136;28;20206;-66
2022/03/08 07:15:08;;;;;;;37.03;23.83;;;;;;;6.69;48.52;94926.53;5091747;28;20266;-63
2022/03/08 07:17:36;;;;;;;38.17;23.67;;;;;;;7.27;47.45;94925.53;5091860;28;20214;-65
2022/03/08 07:20:03;;;;;;;38.67;24.30;;;;;;;7.16;47.40;94922.75;5090672;28;20210;-64
2022/03/08 07:22:30;;;;;;;36.33;23.02;;;;;;;6.50;48.90;94932.91;5091029;28;20573;-62
2022/03/08 07:24:57;;;;;;;36.58;22.70;;;;;;;6.78;48.16;94934.78;5090471;28;20747;-63
2022/03/08 07:27:24;;;;;;;32.90;21.70;;;;;;;7.02;47.21;94926.66;5090511;28;20660;-61
2022/03/08 07:29:50;;;;;;;38.28;23.08;;;;;;;6.96;47.39;94938.00;5072104;28;20240;-65
2022/03/08 07:32:18;;;;;;;35.08;21.55;;;;;;;7.18;47.08;94930.34;5090704;28;20191;-65
2022/03/08 07:34:46;;;;;;;35.53;22.33;;;;;;;6.73;48.14;94927.63;5090363;28;20298;-61
2022/03/08 07:37:14;;;;;;;35.05;22.67;;;;;;;6.75;48.61;94932.63;5089997;28;20222;-63
2022/03/08 07:39:41;;;;;;;35.72;22.70;;;;;;;6.99;47.95;94924.50;5089768;28;20198;-63
2022/03/08 07:42:08;;;;;;;34.80;22.30;;;;;;;7.30;47.04;94922.47;5090516;28;20290;-66
2022/03/08 07:44:36;;;;;;;33.42;22.45;;;;;;;7.31;46.54;94918.81;5090404;28;20187;-63
2022/03/08 07:47:04;;;;;;;32.60;21.98;;;;;;;7.09;47.22;94910.88;5090479;28;20748;-66
2022/03/08 07:49:31;;;;;;;34.65;21.95;;;;;;;7.24;47.56;94919.00;5090089;28;20199;-66
2022/03/08 07:51:58;;;;;;;33.15;21.40;;;;;;;7.00;47.51;94923.50;5090401;28;20199;-65
2022/03/08 07:54:25;;;;;;;31.85;20.50;;;;;;;6.36;48.47;94926.38;5089922;28;20673;-65
2022/03/08 07:56:52;;;;;;;32.70;21.85;;;;;;;6.83;47.95;94927.84;5090154;28;20215;-64
2022/03/08 07:59:19;;;;;;;31.38;21.02;;;;;;;6.82;47.51;94915.88;5089429;28;20198;-66
2022/03/08 08:01:45;;;;;;;32.45;21.15;;;;;;;6.52;47.80;94920.44;5090402;28;20649;-63
2022/03/08 08:04:13;;;;;;;31.05;20.42;;;;;;;6.04;48.87;94925.91;5089711;28;20207;-64
2022/03/08 08:06:39;;;;;;;29.58;19.77;;;;;;;6.08;48.33;94936.66;5090101;28;20209;-64
2022/03/08 08:09:06;;;;;;;31.10;20.40;;;;;;;6.02;48.91;94934.97;5088376;28;20199;-66
2022/03/08 08:11:33;;;;;;;32.33;20.27;;;;;;;6.15;48.79;94929.53;5089583;28;20195;-65
2022/03/08 08:14:00;;;;;;;29.45;20.08;;;;;;;6.25;48.51;94934.16;5089372;28;20252;-61
2022/03/08 08:16:27;;;;;;;30.67;20.05;;;;;;;6.36;47.87;94926.38;5089588;28;20286;-61
2022/03/08 08:18:54;;;;;;;29.65;19.02;;;;;;;6.27;47.54;94932.13;5089259;28;20293;-61
2022/03/08 08:21:21;;;;;;;32.08;18.10;;;;;;;6.46;47.26;94931.75;5089227;28;20280;-64
2022/03/08 08:23:54;;;;;;;29.33;18.95;;;;;;;6.30;48.00;94940.28;5089344;28;20238;-64
2022/03/08 08:26:20;;;;;;;30.67;19.20;;;;;;;6.24;47.78;94943.00;5090136;28;20538;-63
2022/03/08 08:28:47;;;;;;;30.33;19.10;;;;;;;6.33;47.59;94932.03;5088959;28;20187;-63
2022/03/08 08:31:14;;;;;;;31.02;19.75;;;;;;;5.94;48.52;94937.91;5089824;28;20674;-62
2022/03/08 08:33:41;;;;;;;30.38;20.48;;;;;;;5.92;48.44;94934.75;5089421;28;20203;-62
2022/03/08 08:36:08;;;;;;;31.98;20.40;;;;;;;5.45;49.11;94912.25;5089572;28;20191;-61
2022/03/08 08:38:35;;;;;;;34.25;21.65;;;;;;;5.94;48.71;94943.09;5089242;28;20272;-62
2022/03/08 08:41:01;;;;;;;36.50;22.17;;;;;;;6.17;48.05;94937.91;5088934;28;20615;-63
2022/03/08 08:43:29;;;;;;;34.22;20.55;;;;;;;5.80;48.23;94941.72;5089361;28;20676;-61
2022/03/08 08:45:56;;;;;;;33.97;22.23;;;;;;;5.85;48.81;94949.66;5088850;28;20202;-61
2022/03/08 08:48:24;;;;;;;33.70;21.42;;;;;;;5.52;48.98;94941.53;5088876;28;20693;-62
2022/03/08 08:50:51;;;;;;;34.05;21.08;;;;;;;5.64;48.63;94940.53;5088950;28;20203;-62
2022/03/08 08:53:19;;;;;;;36.72;21.55;;;;;;;5.25;49.47;94953.31;5089366;28;20211;-64
2022/03/08 08:55:46;;;;;;;34.72;19.63;;;;;;;5.35;49.26;94963.97;5089052;28;20206;-64
2022/03/08 08:58:13;;;;;;;33.25;21.05;;;;;;;5.23;48.98;94948.34;5088686;28;20221;-61
2022/03/08 09:00:40;;;;;;;32.22;20.42;;;;;;;5.59;48.48;94955.22;5088556;28;20233;-60
2022/03/08 09:03:10;;;;;;;38.10;22.48;;;;;;;5.77;48.14;94957.75;5089281;28;20199;-63
2022/03/08 09:05:37;;;;;;;39.35;22.88;;;;;;;5.67;48.04;94947.91;5088901;28;20211;-61
2022/03/08 09:08:04;;;;;;;37.15;21.05;;;;;;;5.37;48.32;94951.53;5089000;28;20221;-61
2022/03/08 09:10:31;;;;;;;38.70;21.60;;;;;;;5.62;48.36;94939.22;5088933;28;20198;-62
2022/03/08 09:12:58;;;;;;;35.58;21.50;;;;;;;5.50;48.18;94957.34;5089060;28;20589;-63
2022/03/08 09:15:25;;;;;;;36.05;20.10;;;;;;;4.66;49.41;94948.88;5089525;28;20273;-62
2022/03/08 09:17:51;;;;;;;33.60;21.10;;;;;;;4.23;50.34;94954.13;5089038;28;20215;-63
2022/03/08 09:20:18;;;;;;;35.08;21.40;;;;;;;4.67;49.51;94948.66;5089413;28;20214;-61
2022/03/08 09:22:48;;;;;;;38.33;22.45;;;;;;;5.47;48.24;94944.03;5093159;28;20197;-63
2022/03/08 09:25:15;;;;;;;51.60;32.10;;;;;;;5.38;48.06;94947.94;5093153;28;20225;-62
2022/03/08 09:27:42;;;;;;;39.55;24.50;;;;;;;5.06;48.64;94950.78;5093286;28;20628;-61
2022/03/08 09:30:09;;;;;;;40.13;23.70;;;;;;;5.03;48.62;94935.66;5092948;28;20195;-61
2022/03/08 09:32:36;;;;;;;39.85;23.20;;;;;;;5.35;47.80;94961.38;5092802;28;20179;-61
2022/03/08 09:35:03;;;;;;;35.90;21.70;;;;;;;5.82;47.02;94942.28;5092453;28;20214;-60
2022/03/08 09:37:30;;;;;;;44.33;24.10;;;;;;;5.65;47.17;94943.94;5092467;28;20211;-61
2022/03/08 09:39:59;;;;;;;39.92;23.30;;;;;;;5.16;48.43;94945.84;5092199;28;20255;-61
2022/03/08 09:42:25;;;;;;;39.83;24.27;;;;;;;4.76;48.67;94949.94;5092697;28;20199;-62
2022/03/08 09:44:52;;;;;;;43.78;25.33;;;;;;;5.59;48.32;94944.81;5092637;28;20183;-64
2022/03/08 09:47:19;;;;;;;44.90;25.63;;;;;;;5.18;48.32;94954.19;5092418;28;20467;-62
2022/03/08 09:49:46;;;;;;;44.67;26.20;;;;;;;5.74;47.00;94951.19;5092222;28;20290;-63
2022/03/08 09:52:13;;;;;;;42.58;25.90;;;;;;;5.66;47.35;94955.91;5092605;28;20180;-63
2022/03/08 09:54:43;;;;;;;49.83;25.88;;;;;;;5.39;47.14;94957.31;5092037;28;20202;-63
2022/03/08 09:57:25;;;;;;;41.03;24.60;;;;;;;5.20;47.18;94959.16;5092416;28;20588;-62
2022/03/08 09:59:52;;;;;;;38.30;22.73;;;;;;;5.04;47.63;94957.19;5091734;28;20179;-62
2022/03/08 10:02:22;;;;;;;43.78;23.33;;;;;;;5.09;47.78;94954.75;5091952;28;20279;-65
2022/03/08 10:05:04;;;;;;;41.38;23.55;;;;;;;5.30;46.77;94961.25;5092084;28;20203;-62
2022/03/08 10:07:31;;;;;;;38.30;22.63;;;;;;;4.87;47.38;94956.22;5091729;28;20209;-62
2022/03/08 10:09:59;;;;;;;43.67;25.05;;;;;;;4.77;47.17;94925.59;5091504;28;20210;-63
2022/03/08 10:12:27;;;;;;;42.33;24.50;;;;;;;4.14;49.03;94960.59;5092220;28;20205;-62
2022/03/08 10:14:54;;;;;;;46.92;27.35;;;;;;;4.90;48.15;94948.78;5091952;28;20199;-61
2022/03/08 10:17:40;;;;;;;40.83;24.02;;;;;;;4.74;48.31;94957.19;5091900;28;20241;-61
2022/03/08 10:20:10;;;;;;;44.60;25.40;;;;;;;5.66;47.40;94948.91;5092092;28;20203;-61
2022/03/08 10:22:39;;;;;;;41.35;24.80;;;;;;;5.56;47.23;94945.28;5092558;28;20234;-63
2022/03/08 10:25:08;;;;;;;47.65;29.25;;;;;;;5.55;47.38;94954.88;5092155;28;20206;-61
2022/03/08 10:27:35;;;;;;;45.28;26.33;;;;;;;5.07;48.60;94957.53;5091617;28;20199;-59
2022/03/08 10:30:04;;;;;;;44.50;25.58;;;;;;;5.25;47.68;94958.53;5091094;28;20274;-60
2022/03/08 10:32:53;;;;;;;42.70;24.38;;;;;;;5.15;47.75;94954.66;5091343;28;20380;-62
2022/03/08 10:35:25;;;;;;;50.45;25.80;;;;;;;4.98;48.07;94958.84;5091354;28;20661;-62
2022/03/08 10:37:57;;;;;;;42.03;21.55;;;;;;;4.63;48.94;94952.72;5091437;28;20244;-63
2022/03/08 10:40:34;;;;;;;42.92;25.50;;;;;;;5.03;48.28;94958.22;5073639;28;20779;-62
2022/03/08 10:43:09;;;;;;;43.38;25.25;;;;;;;5.27;48.13;94959.09;5092080;28;20191;-64
2022/03/08 10:45:44;;;;;;;45.58;25.88;;;;;;;5.39;48.02;94949.53;5091489;28;20207;-62
2022/03/08 10:48:14;;;;;;;44.38;26.15;;;;;;;5.35;47.71;94948.38;5091292;28;20386;-62
2022/03/08 10:50:43;;;;;;;45.47;26.30;;;;;;;5.57;47.11;94946.84;5090913;28;20205;-63
2022/03/08 10:53:11;;;;;;;46.15;26.58;;;;;;;5.09;48.16;94958.13;5091711;28;20195;-61
2022/03/08 10:55:44;;;;;;;44.78;26.05;;;;;;;4.52;49.20;94948.25;5090976;28;20661;-62
2022/03/08 10:58:13;;;;;;;44.33;25.75;;;;;;;5.03;48.66;94951.22;5090851;28;20234;-62
2022/03/08 11:00:46;;;;;;;43.78;23.70;;;;;;;4.41;49.83;94961.94;5090763;28;20183;-60
2022/03/08 11:03:16;;;;;;;45.75;25.23;;;;;;;4.22;50.03;94965.50;5091751;28;20195;-60
2022/03/08 11:05:50;;;;;;;46.78;26.60;;;;;;;4.51;49.74;94962.22;5090725;28;20289;-62
2022/03/08 11:08:17;;;;;;;46.85;25.88;;;;;;;4.86;49.03;94959.81;5090617;28;20853;-61
2022/03/08 11:10:45;;;;;;;51.03;26.30;;;;;;;4.91;48.51;94955.56;5090737;28;20187;-61
2022/03/08 11:13:14;;;;;;;49.10;29.02;;;;;;;5.14;48.74;94955.69;5090884;28;20199;-65
2022/03/08 11:15:45;;;;;;;54.33;29.90;;;;;;;5.80;47.56;94952.13;5090374;28;20191;-63
2022/03/08 11:18:14;;;;;;;51.42;28.55;;;;;;;5.66;46.92;94943.72;5090319;28;20230;-64
2022/03/08 11:20:45;;;;;;;56.50;28.92;;;;;;;4.98;48.31;94953.66;5089999;28;20260;-61
2022/03/08 11:23:12;;;;;;;48.92;27.55;;;;;;;4.71;48.42;94952.41;5091178;28;20199;-61
2022/03/08 11:25:45;;;;;;;50.38;27.80;;;;;;;5.07;47.33;94946.38;5090519;28;20199;-60
2022/03/08 11:28:18;;;;;;;40.55;22.90;;;;;;;4.67;47.81;94956.44;5089902;28;20769;-61